Time;durP1;ratioP1;P1;durP2;ratioP2;P2;SDS_P1;SDS_P2;PMS_P1;PMS_P2;Temp;Humidity;BMP_temperature;BMP_pressure;BME280_temperature;BME280_humidity;BME280_pressure;Samples;Min_cycle;Max_cycle;Signal;HPM_P1;HPM_P2
2022/09/14 00:02:00;;;;;;;;;;;23.20;46.00;;;;;;8331447;28;20279;-44
2022/09/14 00:06:05;;;;;;;;;;;23.20;46.00;;;;;;8331304;28;19920;-43
2022/09/14 00:10:05;;;;;;;;;;;23.20;46.00;;;;;;8331483;28;19917;-42
2022/09/14 00:14:06;;;;;;;;;;;23.20;46.00;;;;;;8331316;28;20438;-44
2022/09/14 00:18:08;;;;;;;;;;;23.20;46.00;;;;;;8330581;28;19925;-43
2022/09/14 00:22:08;;;;;;;;;;;23.10;46.00;;;;;;8331161;28;19975;-43
2022/09/14 00:26:13;;;;;;;;;;;23.20;45.90;;;;;;8331365;28;19914;-43
2022/09/14 00:30:14;;;;;;;;;;;23.20;46.00;;;;;;8330438;28;19948;-44
2022/09/14 00:34:15;;;;;;;;;;;23.10;46.00;;;;;;8330736;28;20302;-43
2022/09/14 00:38:16;;;;;;;;;;;23.10;45.90;;;;;;8330274;28;19921;-42
2022/09/14 00:42:18;;;;;;;;;;;23.20;46.00;;;;;;8330063;28;20309;-42
2022/09/14 00:46:18;;;;;;;;;;;23.10;46.00;;;;;;8329751;28;20325;-43
2022/09/14 00:50:19;;;;;;;;;;;23.20;46.00;;;;;;8330032;28;19923;-43
2022/09/14 00:54:20;;;;;;;;;;;23.10;46.00;;;;;;8330415;28;19924;-44
2022/09/14 00:58:20;;;;;;;;;;;23.20;46.10;;;;;;8330273;28;20446;-43
2022/09/14 01:02:22;;;;;;;;;;;23.20;46.10;;;;;;8329758;28;19932;-43
2022/09/14 01:06:30;;;;;;;;;;;23.10;46.10;;;;;;8330826;28;20374;-42
2022/09/14 01:10:35;;;;;;;;;;;23.10;46.00;;;;;;8329112;28;19956;-42
2022/09/14 01:14:41;;;;;;;;;;;23.10;46.00;;;;;;8329665;28;19922;-43
2022/09/14 01:18:46;;;;;;;;;;;23.10;46.00;;;;;;8330276;28;20290;-43
2022/09/14 01:22:46;;;;;;;;;;;23.10;46.10;;;;;;8329867;28;19929;-43
2022/09/14 01:26:46;;;;;;;;;;;23.10;46.10;;;;;;8329705;28;20536;-41
2022/09/14 01:30:49;;;;;;;;;;;23.10;46.10;;;;;;8329788;28;19917;-42
2022/09/14 01:35:05;;;;;;;;;;;23.10;46.10;;;;;;8329754;28;20012;-42
2022/09/14 01:39:06;;;;;;;;;;;23.10;46.20;;;;;;8329326;28;19917;-43
2022/09/14 01:43:09;;;;;;;;;;;23.10;46.10;;;;;;8329822;28;19963;-43
2022/09/14 01:47:19;;;;;;;;;;;23.10;46.10;;;;;;8330537;28;20016;-42
2022/09/14 01:51:24;;;;;;;;;;;23.10;46.20;;;;;;8368733;28;20339;-44
2022/09/14 01:55:27;;;;;;;;;;;23.10;46.10;;;;;;8368400;28;19944;-43
2022/09/14 01:59:33;;;;;;;;;;;23.10;46.10;;;;;;8368006;28;19924;-42
2022/09/14 02:03:44;;;;;;;;;;;23.10;46.20;;;;;;8368278;28;19925;-44
2022/09/14 02:07:44;;;;;;;;;;;23.10;46.20;;;;;;8368152;28;19924;-43
2022/09/14 02:11:45;;;;;;;;;;;23.10;46.30;;;;;;8367886;28;19964;-44
2022/09/14 02:15:46;;;;;;;;;;;23.10;46.30;;;;;;8368165;28;20003;-44
2022/09/14 02:19:48;;;;;;;;;;;23.00;46.20;;;;;;8367865;28;20328;-42
2022/09/14 02:23:49;;;;;;;;;;;23.10;46.30;;;;;;8367208;28;19924;-42
2022/09/14 02:27:50;;;;;;;;;;;23.10;46.30;;;;;;8367584;28;19920;-42
2022/09/14 02:31:56;;;;;;;;;;;23.10;46.30;;;;;;8367593;28;20293;-42
2022/09/14 02:36:00;;;;;;;;;;;23.10;46.30;;;;;;8366798;28;19920;-42
2022/09/14 02:40:12;;;;;;;;;;;23.10;46.40;;;;;;8367378;28;19917;-43
2022/09/14 02:44:23;;;;;;;;;;;23.10;46.40;;;;;;8366973;28;19921;-44
2022/09/14 02:48:32;;;;;;;;;;;23.00;46.30;;;;;;8366621;28;19917;-42
2022/09/14 02:52:38;;;;;;;;;;;23.10;46.40;;;;;;8366943;28;19913;-43
2022/09/14 02:56:39;;;;;;;;;;;23.10;46.40;;;;;;8366631;28;19978;-44
2022/09/14 03:00:47;;;;;;;;;;;23.10;46.50;;;;;;8366091;28;19921;-44
2022/09/14 03:04:48;;;;;;;;;;;23.10;46.40;;;;;;8366397;28;19931;-45
2022/09/14 03:08:48;;;;;;;;;;;23.10;46.50;;;;;;8365841;28;19921;-44
2022/09/14 03:12:49;;;;;;;;;;;23.10;46.40;;;;;;8366039;28;20076;-44
2022/09/14 03:16:49;;;;;;;;;;;23.10;46.50;;;;;;8366482;28;19921;-43
2022/09/14 03:20:50;;;;;;;;;;;23.10;46.50;;;;;;8365464;28;19921;-44
2022/09/14 03:24:50;;;;;;;;;;;23.10;46.40;;;;;;8365864;28;19925;-44
2022/09/14 03:28:52;;;;;;;;;;;23.10;46.50;;;;;;8365597;28;19919;-44
2022/09/14 03:32:52;;;;;;;;;;;23.10;46.50;;;;;;8365234;28;19917;-44
2022/09/14 03:36:52;;;;;;;;;;;23.10;46.50;;;;;;8365754;28;19962;-46
2022/09/14 03:40:53;;;;;;;;;;;23.10;46.50;;;;;;8365360;28;19920;-44
2022/09/14 03:44:53;;;;;;;;;;;23.10;47.00;;;;;;8364569;28;19929;-43
2022/09/14 03:48:54;;;;;;;;;;;23.10;46.60;;;;;;8364846;28;20343;-44
2022/09/14 03:52:55;;;;;;;;;;;23.10;46.50;;;;;;8365014;28;20303;-44
2022/09/14 03:56:55;;;;;;;;;;;23.00;46.50;;;;;;8363046;28;19944;-43
2022/09/14 04:01:01;;;;;;;;;;;23.00;46.50;;;;;;8364583;28;20381;-45
2022/09/14 04:05:01;;;;;;;;;;;23.00;46.50;;;;;;8364487;28;20378;-44
2022/09/14 04:09:02;;;;;;;;;;;23.00;46.50;;;;;;8360596;28;19917;-44
2022/09/14 04:13:02;;;;;;;;;;;23.10;46.60;;;;;;8331243;28;19924;-44
2022/09/14 04:17:03;;;;;;;;;;;23.00;46.50;;;;;;8331323;28;19921;-44
2022/09/14 04:21:06;;;;;;;;;;;23.00;46.50;;;;;;8330653;28;19921;-44
2022/09/14 04:25:07;;;;;;;;;;;23.00;46.50;;;;;;8331121;28;19991;-43
2022/09/14 04:29:09;;;;;;;;;;;23.00;46.60;;;;;;8330846;28;19913;-43
2022/09/14 04:33:09;;;;;;;;;;;23.00;46.60;;;;;;8330601;28;19964;-45
2022/09/14 04:37:10;;;;;;;;;;;23.00;46.60;;;;;;8330643;28;19921;-45
2022/09/14 04:41:12;;;;;;;;;;;23.00;46.60;;;;;;8330722;28;19924;-43
2022/09/14 04:45:12;;;;;;;;;;;23.00;46.60;;;;;;8330027;28;19947;-44
2022/09/14 04:49:17;;;;;;;;;;;23.00;46.60;;;;;;8330377;28;19913;-44
2022/09/14 04:53:18;;;;;;;;;;;23.00;46.60;;;;;;8330317;28;19917;-45
2022/09/14 04:57:18;;;;;;;;;;;23.00;46.60;;;;;;8330385;28;19923;-45
2022/09/14 05:01:20;;;;;;;;;;;23.00;46.60;;;;;;8330144;28;19921;-44
2022/09/14 05:05:21;;;;;;;;;;;23.00;46.70;;;;;;8330175;28;19921;-43
2022/09/14 05:09:21;;;;;;;;;;;23.00;46.70;;;;;;8330101;28;19939;-44
2022/09/14 05:13:22;;;;;;;;;;;23.00;46.60;;;;;;8330510;28;19971;-43
2022/09/14 05:17:22;;;;;;;;;;;23.00;46.70;;;;;;8329812;28;19917;-44
2022/09/14 05:21:23;;;;;;;;;;;23.00;46.70;;;;;;8331150;28;19917;-45
2022/09/14 05:25:25;;;;;;;;;;;23.00;46.70;;;;;;8336270;28;19921;-43
2022/09/14 05:29:28;;;;;;;;;;;23.00;46.60;;;;;;8335976;28;19917;-45
2022/09/14 05:33:28;;;;;;;;;;;23.00;46.70;;;;;;8336540;28;19914;-44
2022/09/14 05:37:29;;;;;;;;;;;23.00;46.70;;;;;;8335918;28;19996;-44
2022/09/14 05:41:29;;;;;;;;;;;23.00;46.70;;;;;;8335576;28;19917;-44
2022/09/14 05:45:30;;;;;;;;;;;23.00;46.70;;;;;;8335995;28;20063;-45
2022/09/14 05:49:30;;;;;;;;;;;23.00;46.60;;;;;;8335812;28;19917;-44
2022/09/14 05:53:31;;;;;;;;;;;23.00;46.60;;;;;;8335257;28;19917;-44
2022/09/14 05:57:31;;;;;;;;;;;23.00;46.70;;;;;;8335733;28;19917;-45
2022/09/14 06:01:32;;;;;;;;;;;23.00;46.70;;;;;;8335369;28;19924;-44
2022/09/14 06:05:34;;;;;;;;;;;23.00;46.70;;;;;;8334910;28;19921;-43
2022/09/14 06:09:34;;;;;;;;;;;23.00;46.70;;;;;;8335463;28;19917;-44
2022/09/14 06:13:35;;;;;;;;;;;23.00;46.70;;;;;;8335232;28;20441;-43
2022/09/14 06:17:36;;;;;;;;;;;23.00;46.70;;;;;;8334446;28;19933;-44
2022/09/14 06:21:36;;;;;;;;;;;23.00;46.70;;;;;;8333645;28;20370;-44
2022/09/14 06:25:37;;;;;;;;;;;23.00;46.70;;;;;;8334427;28;20328;-44
2022/09/14 06:29:37;;;;;;;;;;;23.00;46.70;;;;;;8334089;28;19929;-44
2022/09/14 06:33:41;;;;;;;;;;;23.00;46.60;;;;;;8334113;28;19913;-44
2022/09/14 06:37:41;;;;;;;;;;;23.00;46.60;;;;;;8334241;28;19929;-44
2022/09/14 06:41:42;;;;;;;;;;;23.00;46.60;;;;;;8333639;28;20314;-46
2022/09/14 06:45:42;;;;;;;;;;;23.00;46.70;;;;;;8333802;28;19921;-45
2022/09/14 06:49:43;;;;;;;;;;;23.00;46.60;;;;;;8333932;28;20412;-45
2022/09/14 06:53:44;;;;;;;;;;;23.00;46.60;;;;;;8333448;28;20000;-43
2022/09/14 06:57:46;;;;;;;;;;;23.00;46.60;;;;;;8333563;28;19925;-44
2022/09/14 07:01:48;;;;;;;;;;;23.00;46.60;;;;;;8333596;28;19917;-44
2022/09/14 07:05:49;;;;;;;;;;;23.00;46.70;;;;;;8332766;28;19924;-44
2022/09/14 07:09:49;;;;;;;;;;;23.00;46.60;;;;;;8332386;28;19913;-43
2022/09/14 07:13:50;;;;;;;;;;;23.00;46.60;;;;;;8333294;28;19932;-46
2022/09/14 07:17:50;;;;;;;;;;;23.00;46.60;;;;;;8332618;28;19921;-44
2022/09/14 07:21:53;;;;;;;;;;;23.00;46.60;;;;;;8332899;28;19971;-44
2022/09/14 07:26:20;;;;;;;;;;;23.10;46.60;;;;;;8332937;28;20347;-44
2022/09/14 07:30:23;;;;;;;;;;;23.10;46.60;;;;;;8329197;28;19952;-44
2022/09/14 07:34:24;;;;;;;;;;;23.10;46.70;;;;;;8332836;28;19921;-44
2022/09/14 07:38:24;;;;;;;;;;;23.10;46.60;;;;;;8331862;28;20409;-44
2022/09/14 07:42:25;;;;;;;;;;;23.10;46.60;;;;;;8332098;28;19925;-44
2022/09/14 07:46:29;;;;;;;;;;;23.00;46.50;;;;;;8331005;28;19920;-45
2022/09/14 07:50:29;;;;;;;;;;;23.10;46.50;;;;;;8331666;28;19925;-44
2022/09/14 07:54:30;;;;;;;;;;;23.10;46.60;;;;;;8332109;28;19968;-45
2022/09/14 07:58:31;;;;;;;;;;;23.10;46.60;;;;;;8331975;28;19917;-45
2022/09/14 08:02:31;;;;;;;;;;;23.10;46.60;;;;;;8331252;28;19921;-45
2022/09/14 08:06:32;;;;;;;;;;;23.10;46.60;;;;;;8331926;28;19917;-44
2022/09/14 08:10:33;;;;;;;;;;;23.10;46.60;;;;;;8331500;28;19920;-44
2022/09/14 08:14:34;;;;;;;;;;;23.10;46.70;;;;;;8331162;28;20297;-44
2022/09/14 08:18:35;;;;;;;;;;;23.10;46.60;;;;;;8331163;28;19922;-45
2022/09/14 08:22:35;;;;;;;;;;;23.10;46.60;;;;;;8331005;28;20413;-44
2022/09/14 08:26:36;;;;;;;;;;;23.10;46.50;;;;;;8330669;28;19992;-45
2022/09/14 08:30:36;;;;;;;;;;;23.10;46.60;;;;;;8330919;28;19996;-45
2022/09/14 08:34:37;;;;;;;;;;;23.10;46.40;;;;;;8330959;28;20378;-44
2022/09/14 08:38:37;;;;;;;;;;;23.20;46.60;;;;;;8330216;28;19929;-44
2022/09/14 08:42:39;;;;;;;;;;;23.10;46.50;;;;;;8330795;28;19925;-44
2022/09/14 08:46:45;;;;;;;;;;;23.10;46.40;;;;;;8330778;28;19936;-46
2022/09/14 08:50:46;;;;;;;;;;;23.20;46.40;;;;;;8329947;28;19923;-44
2022/09/14 08:54:48;;;;;;;;;;;23.20;46.40;;;;;;8330815;28;19917;-45
2022/09/14 08:58:48;;;;;;;;;;;23.20;46.40;;;;;;8330085;28;19963;-44
2022/09/14 09:02:51;;;;;;;;;;;23.20;46.40;;;;;;8329619;28;19925;-44
2022/09/14 09:06:57;;;;;;;;;;;23.20;46.30;;;;;;8330282;28;19917;-44
2022/09/14 09:10:58;;;;;;;;;;;23.20;46.30;;;;;;8330328;28;19913;-43
2022/09/14 09:14:59;;;;;;;;;;;23.20;46.30;;;;;;8329924;28;20243;-44
2022/09/14 09:19:04;;;;;;;;;;;23.20;46.30;;;;;;8330262;28;19940;-44
2022/09/14 09:23:10;;;;;;;;;;;23.20;46.30;;;;;;8329937;28;19925;-45
2022/09/14 09:27:11;;;;;;;;;;;23.20;46.20;;;;;;8329526;28;19917;-45
2022/09/14 09:31:12;;;;;;;;;;;23.30;46.20;;;;;;8329893;28;19967;-44
2022/09/14 09:35:13;;;;;;;;;;;23.30;46.20;;;;;;8330012;28;19921;-44
2022/09/14 09:39:14;;;;;;;;;;;23.30;46.30;;;;;;8329395;28;19921;-44
2022/09/14 09:43:17;;;;;;;;;;;23.30;46.20;;;;;;8329830;28;19963;-43
2022/09/14 09:47:23;;;;;;;;;;;23.30;46.60;;;;;;8329701;28;19921;-43
2022/09/14 09:51:24;;;;;;;;;;;23.30;46.10;;;;;;8329458;28;19917;-44
2022/09/14 09:55:27;;;;;;;;;;;23.30;46.00;;;;;;8329560;28;20450;-43
2022/09/14 09:59:29;;;;;;;;;;;23.30;46.00;;;;;;8329212;28;20408;-44
2022/09/14 10:03:32;;;;;;;;;;;23.30;46.00;;;;;;8329528;28;19925;-45
2022/09/14 10:07:33;;;;;;;;;;;23.40;46.00;;;;;;8314986;28;19924;-44
2022/09/14 10:11:36;;;;;;;;;;;23.40;46.00;;;;;;8334495;28;20055;-47
2022/09/14 10:15:37;;;;;;;;;;;23.40;45.90;;;;;;8335337;28;19914;-44
2022/09/14 10:19:37;;;;;;;;;;;23.40;46.00;;;;;;8335101;28;20289;-45
2022/09/14 10:23:38;;;;;;;;;;;23.40;45.90;;;;;;8334267;28;19937;-43
2022/09/14 10:27:47;;;;;;;;;;;23.40;45.90;;;;;;8334674;28;19918;-44
2022/09/14 10:31:48;;;;;;;;;;;23.50;45.90;;;;;;8334562;28;19917;-43
2022/09/14 10:36:04;;;;;;;;;;;23.40;45.80;;;;;;8333928;28;19927;-43
2022/09/14 10:40:15;;;;;;;;;;;23.50;45.90;;;;;;8334670;28;19924;-43
2022/09/14 10:44:33;;;;;;;;;;;23.50;45.80;;;;;;8334036;28;20444;-44
2022/09/14 10:48:44;;;;;;;;;;;23.50;45.80;;;;;;8333755;28;20287;-43
2022/09/14 10:52:45;;;;;;;;;;;23.60;45.80;;;;;;8333865;28;20114;-44
2022/09/14 10:56:57;;;;;;;;;;;23.50;45.70;;;;;;8333424;28;20337;-43
2022/09/14 11:01:04;;;;;;;;;;;23.60;45.80;;;;;;8333722;28;20386;-44
2022/09/14 11:05:22;;;;;;;;;;;23.60;45.70;;;;;;8333609;28;19925;-43
2022/09/14 11:09:25;;;;;;;;;;;23.60;45.70;;;;;;8332990;28;19917;-44
2022/09/14 11:13:41;;;;;;;;;;;23.60;45.60;;;;;;8333248;28;19921;-44
2022/09/14 11:17:47;;;;;;;;;;;23.70;45.70;;;;;;8332619;28;19924;-43
2022/09/14 11:22:13;;;;;;;;;;;23.70;45.70;;;;;;8332660;28;20374;-42
2022/09/14 11:26:17;;;;;;;;;;;23.70;45.80;;;;;;8333033;28;19925;-44
2022/09/14 11:30:18;;;;;;;;;;;23.70;45.80;;;;;;8332420;28;19917;-43
2022/09/14 11:34:28;;;;;;;;;;;23.70;45.70;;;;;;8332717;28;20381;-44
2022/09/14 11:38:29;;;;;;;;;;;23.70;45.70;;;;;;8331937;28;19953;-44
2022/09/14 11:42:32;;;;;;;;;;;23.70;45.80;;;;;;8332153;28;20366;-44
2022/09/14 11:46:34;;;;;;;;;;;23.70;45.70;;;;;;8332431;28;19979;-44
2022/09/14 11:50:35;;;;;;;;;;;23.70;45.80;;;;;;8331933;28;19913;-43
2022/09/14 11:54:38;;;;;;;;;;;23.80;45.70;;;;;;8332177;28;20328;-43
2022/09/14 11:58:39;;;;;;;;;;;23.80;46.30;;;;;;8332003;28;19936;-44
2022/09/14 12:02:43;;;;;;;;;;;23.80;45.70;;;;;;8331186;28;19929;-43
2022/09/14 12:06:48;;;;;;;;;;;23.70;45.70;;;;;;8331536;28;19940;-42
2022/09/14 12:11:09;;;;;;;;;;;23.80;45.90;;;;;;8331706;28;19913;-41
2022/09/14 12:15:21;;;;;;;;;;;23.70;45.80;;;;;;8294098;28;20276;-42
2022/09/14 12:19:25;;;;;;;;;;;23.70;45.80;;;;;;8323443;28;19917;-43
2022/09/14 12:23:34;;;;;;;;;;;23.80;45.90;;;;;;8330510;28;19929;-43
2022/09/14 12:27:36;;;;;;;;;;;23.70;45.80;;;;;;8330880;28;19917;-42
2022/09/14 12:31:43;;;;;;;;;;;23.70;45.80;;;;;;8330285;28;20003;-44
2022/09/14 12:35:44;;;;;;;;;;;23.80;45.80;;;;;;8330434;28;20008;-44
2022/09/14 12:40:14;;;;;;;;;;;23.80;45.80;;;;;;8330512;28;19921;-44
2022/09/14 12:44:35;;;;;;;;;;;23.80;45.80;;;;;;8321319;28;19932;-44
2022/09/14 12:48:44;;;;;;;;;;;23.80;45.80;;;;;;8330031;28;19944;-44
2022/09/14 12:52:48;;;;;;;;;;;23.70;45.80;;;;;;8330322;28;20281;-44
2022/09/14 12:56:54;;;;;;;;;;;23.70;45.80;;;;;;8329796;28;19921;-43
2022/09/14 13:01:00;;;;;;;;;;;23.80;45.80;;;;;;8330699;28;19936;-44
2022/09/14 13:05:04;;;;;;;;;;;23.70;45.80;;;;;;8329411;28;19960;-44
2022/09/14 13:09:10;;;;;;;;;;;23.70;45.90;;;;;;8329582;28;20003;-43
2022/09/14 13:13:13;;;;;;;;;;;23.70;45.90;;;;;;8330159;28;19918;-47
2022/09/14 13:17:15;;;;;;;;;;;23.70;46.00;;;;;;8329947;28;19927;-44
2022/09/14 13:21:20;;;;;;;;;;;23.70;46.10;;;;;;8329578;28;19948;-46
2022/09/14 13:25:25;;;;;;;;;;;23.70;46.20;;;;;;8329842;28;19925;-46
2022/09/14 13:29:26;;;;;;;;;;;23.70;46.20;;;;;;8329291;28;20417;-45
2022/09/14 13:33:28;;;;;;;;;;;23.70;46.10;;;;;;8329961;28;19917;-44
2022/09/14 13:37:29;;;;;;;;;;;23.70;46.10;;;;;;8329716;28;20271;-46
2022/09/14 13:41:30;;;;;;;;;;;23.70;46.10;;;;;;8329351;28;19917;-44
2022/09/14 13:45:30;;;;;;;;;;;23.70;46.10;;;;;;8335115;28;19939;-45
2022/09/14 13:49:32;;;;;;;;;;;23.70;46.10;;;;;;8335505;28;19999;-46
2022/09/14 13:53:44;;;;;;;;;;;23.70;46.00;;;;;;8334959;28;20366;-45
2022/09/14 13:58:03;;;;;;;;;;;23.70;46.20;;;;;;8335258;28;19928;-45
2022/09/14 14:02:11;;;;;;;;;;;23.70;46.10;;;;;;8335185;28;20012;-44
2022/09/14 14:06:19;;;;;;;;;;;23.70;46.10;;;;;;8335049;28;19917;-45
2022/09/14 14:10:28;;;;;;;;;;;23.80;46.30;;;;;;8334900;28;19917;-45
2022/09/14 14:14:29;;;;;;;;;;;23.80;46.20;;;;;;8334507;28;19917;-45
2022/09/14 14:18:35;;;;;;;;;;;23.80;46.20;;;;;;8334776;28;19921;-45
2022/09/14 14:22:37;;;;;;;;;;;23.80;46.10;;;;;;8334600;28;19932;-44
2022/09/14 14:26:38;;;;;;;;;;;23.80;46.20;;;;;;8334525;28;20353;-44
2022/09/14 14:30:40;;;;;;;;;;;23.80;46.00;;;;;;8334588;28;20330;-43
2022/09/14 14:34:41;;;;;;;;;;;23.80;46.00;;;;;;8334244;28;20032;-44
2022/09/14 14:38:43;;;;;;;;;;;23.80;46.00;;;;;;8334314;28;19928;-44
2022/09/14 14:42:43;;;;;;;;;;;23.80;46.00;;;;;;8333746;28;19935;-43
2022/09/14 14:46:44;;;;;;;;;;;23.80;46.10;;;;;;8334143;28;19913;-44
2022/09/14 14:50:45;;;;;;;;;;;23.80;46.10;;;;;;8333279;28;20007;-44
2022/09/14 14:54:46;;;;;;;;;;;23.80;46.10;;;;;;8332932;28;19921;-44
2022/09/14 14:58:46;;;;;;;;;;;23.80;46.00;;;;;;8333154;28;19917;-45
2022/09/14 15:02:47;;;;;;;;;;;23.80;46.10;;;;;;8332685;28;19987;-46
2022/09/14 15:06:48;;;;;;;;;;;23.80;46.10;;;;;;8333260;28;19913;-44
2022/09/14 15:10:53;;;;;;;;;;;23.80;46.10;;;;;;8332854;28;19917;-44
2022/09/14 15:14:54;;;;;;;;;;;23.80;46.10;;;;;;8332519;28;19925;-46
2022/09/14 15:18:54;;;;;;;;;;;23.80;46.10;;;;;;8332896;28;20266;-44
2022/09/14 15:22:55;;;;;;;;;;;23.80;46.10;;;;;;8332811;28;19939;-45
2022/09/14 15:26:56;;;;;;;;;;;23.80;46.10;;;;;;8332530;28;19924;-48
2022/09/14 15:30:57;;;;;;;;;;;23.80;46.20;;;;;;8332819;28;19925;-45
2022/09/14 15:34:57;;;;;;;;;;;23.80;46.20;;;;;;8332342;28;20024;-44
2022/09/14 15:38:58;;;;;;;;;;;23.80;46.30;;;;;;8332082;28;20055;-45
2022/09/14 15:42:58;;;;;;;;;;;23.80;46.30;;;;;;8332126;28;19975;-44
2022/09/14 15:47:00;;;;;;;;;;;23.80;46.30;;;;;;8332259;28;19945;-45
2022/09/14 15:51:08;;;;;;;;;;;23.80;46.30;;;;;;8331713;28;19925;-44
2022/09/14 15:55:09;;;;;;;;;;;23.80;46.30;;;;;;8334067;28;19921;-45
2022/09/14 15:59:09;;;;;;;;;;;23.80;46.30;;;;;;8325358;28;19968;-44
2022/09/14 16:03:10;;;;;;;;;;;23.80;46.30;;;;;;8304979;28;19925;-45
2022/09/14 16:07:10;;;;;;;;;;;23.80;46.30;;;;;;8311551;28;19917;-45
2022/09/14 16:11:11;;;;;;;;;;;23.80;46.40;;;;;;8308399;28;19925;-44
2022/09/14 16:15:11;;;;;;;;;;;23.80;46.30;;;;;;8315620;28;20001;-43
2022/09/14 16:19:12;;;;;;;;;;;23.80;46.30;;;;;;8314404;28;20341;-44
2022/09/14 16:23:13;;;;;;;;;;;23.80;46.40;;;;;;8329368;28;19925;-44
2022/09/14 16:27:13;;;;;;;;;;;23.80;46.90;;;;;;8312290;28;20007;-45
2022/09/14 16:31:16;;;;;;;;;;;23.80;46.40;;;;;;8324868;28;19924;-46
2022/09/14 16:35:16;;;;;;;;;;;23.80;46.40;;;;;;8312692;28;19927;-43
2022/09/14 16:39:18;;;;;;;;;;;23.80;46.50;;;;;;8307369;28;19917;-44
2022/09/14 16:43:18;;;;;;;;;;;23.80;46.50;;;;;;8328300;28;20426;-44
2022/09/14 16:47:19;;;;;;;;;;;23.80;47.00;;;;;;8308345;28;19917;-45
2022/09/14 16:51:21;;;;;;;;;;;23.80;46.50;;;;;;8297080;28;19918;-45
2022/09/14 16:55:22;;;;;;;;;;;23.70;46.40;;;;;;8304727;28;19917;-45
2022/09/14 16:59:23;;;;;;;;;;;23.70;46.40;;;;;;8306315;28;20274;-45
2022/09/14 17:03:26;;;;;;;;;;;23.80;46.50;;;;;;8319175;28;20345;-42
2022/09/14 17:07:26;;;;;;;;;;;23.80;46.50;;;;;;8300132;28;19922;-45
2022/09/14 17:11:28;;;;;;;;;;;23.80;46.60;;;;;;8309243;28;19925;-45
2022/09/14 17:15:29;;;;;;;;;;;23.70;46.50;;;;;;8304380;28;19917;-44
2022/09/14 17:19:29;;;;;;;;;;;23.70;46.50;;;;;;8330573;28;20285;-44
2022/09/14 17:23:30;;;;;;;;;;;23.80;46.60;;;;;;8305039;28;19928;-43
2022/09/14 17:27:30;;;;;;;;;;;23.70;46.60;;;;;;8310209;28;20378;-46
2022/09/14 17:31:32;;;;;;;;;;;23.70;46.50;;;;;;8327420;28;20349;-45
2022/09/14 17:35:33;;;;;;;;;;;23.70;46.60;;;;;;8333649;28;19921;-45
2022/09/14 17:39:33;;;;;;;;;;;23.70;46.60;;;;;;8319685;28;19917;-44
2022/09/14 17:43:34;;;;;;;;;;;23.70;46.60;;;;;;8327417;28;19925;-43
2022/09/14 17:47:35;;;;;;;;;;;23.70;46.60;;;;;;8314237;28;19971;-43
2022/09/14 17:51:37;;;;;;;;;;;23.70;46.80;;;;;;8318559;28;19922;-44
2022/09/14 17:55:37;;;;;;;;;;;23.70;46.60;;;;;;8339816;28;19917;-44
2022/09/14 17:59:38;;;;;;;;;;;23.70;46.60;;;;;;8318536;28;20336;-44
2022/09/14 18:03:39;;;;;;;;;;;23.70;46.70;;;;;;8303474;28;19926;-44
2022/09/14 18:07:39;;;;;;;;;;;23.70;46.60;;;;;;8326876;28;19917;-43
2022/09/14 18:11:40;;;;;;;;;;;23.70;46.70;;;;;;8327208;28;20000;-44
2022/09/14 18:15:40;;;;;;;;;;;23.70;46.70;;;;;;8319258;28;19925;-45
2022/09/14 18:19:41;;;;;;;;;;;23.70;46.70;;;;;;8309566;28;19924;-45
2022/09/14 18:23:42;;;;;;;;;;;23.70;46.70;;;;;;8334484;28;19972;-44
2022/09/14 18:27:42;;;;;;;;;;;23.70;46.70;;;;;;8325554;28;19957;-45
2022/09/14 18:31:43;;;;;;;;;;;23.70;46.80;;;;;;8346880;28;19916;-44
2022/09/14 18:35:43;;;;;;;;;;;23.70;46.80;;;;;;8335299;28;20343;-44
2022/09/14 18:39:44;;;;;;;;;;;23.70;46.80;;;;;;8321192;28;19996;-44
2022/09/14 18:43:45;;;;;;;;;;;23.70;46.80;;;;;;8334181;28;20443;-44
2022/09/14 18:47:46;;;;;;;;;;;23.70;46.80;;;;;;8316201;28;20004;-45
2022/09/14 18:51:46;;;;;;;;;;;23.70;46.90;;;;;;8308791;28;19925;-44
2022/09/14 18:55:46;;;;;;;;;;;23.70;46.90;;;;;;8319508;28;19913;-46
2022/09/14 18:59:48;;;;;;;;;;;23.70;46.90;;;;;;8347504;28;19917;-45
2022/09/14 19:03:48;;;;;;;;;;;23.70;46.90;;;;;;8340117;28;19921;-45
2022/09/14 19:07:49;;;;;;;;;;;23.70;46.90;;;;;;8325065;28;20358;-45
2022/09/14 19:11:49;;;;;;;;;;;23.70;46.90;;;;;;8315196;28;19917;-46
2022/09/14 19:15:50;;;;;;;;;;;23.70;46.90;;;;;;8324164;28;20287;-46
2022/09/14 19:19:51;;;;;;;;;;;23.70;47.00;;;;;;8306601;28;19921;-44
2022/09/14 19:23:56;;;;;;;;;;;23.70;47.00;;;;;;8323761;28;19929;-45
2022/09/14 19:27:57;;;;;;;;;;;23.70;47.00;;;;;;8324355;28;19975;-43
2022/09/14 19:31:58;;;;;;;;;;;23.70;47.00;;;;;;8320813;28;19917;-43
2022/09/14 19:36:03;;;;;;;;;;;23.60;47.00;;;;;;8330671;28;19921;-44
2022/09/14 19:40:03;;;;;;;;;;;23.60;47.10;;;;;;8332119;28;20044;-44
2022/09/14 19:44:06;;;;;;;;;;;23.60;47.00;;;;;;8332849;28;20336;-42
2022/09/14 19:48:06;;;;;;;;;;;23.60;47.10;;;;;;8331726;28;19928;-43
2022/09/14 19:52:07;;;;;;;;;;;23.60;47.10;;;;;;8331949;28;20370;-44
2022/09/14 19:56:10;;;;;;;;;;;23.60;47.10;;;;;;8331245;28;21336;-43
2022/09/14 20:00:11;;;;;;;;;;;23.60;47.20;;;;;;8330195;28;19980;-43
2022/09/14 20:04:12;;;;;;;;;;;23.60;47.20;;;;;;8332064;28;19975;-44
2022/09/14 20:08:13;;;;;;;;;;;23.60;47.10;;;;;;8331656;28;19956;-46
2022/09/14 20:12:13;;;;;;;;;;;23.60;47.70;;;;;;8330991;28;19980;-44
2022/09/14 20:16:18;;;;;;;;;;;23.60;47.10;;;;;;8331451;28;20055;-44
2022/09/14 20:20:19;;;;;;;;;;;23.60;47.20;;;;;;8330790;28;19917;-44
2022/09/14 20:24:24;;;;;;;;;;;23.60;47.20;;;;;;8331107;28;19928;-44
2022/09/14 20:28:25;;;;;;;;;;;23.60;47.10;;;;;;8330901;28;19917;-43
2022/09/14 20:32:25;;;;;;;;;;;23.60;47.20;;;;;;8330461;28;20028;-45
2022/09/14 20:36:27;;;;;;;;;;;23.60;47.20;;;;;;8330857;28;20008;-44
2022/09/14 20:40:27;;;;;;;;;;;23.60;47.20;;;;;;8331036;28;20286;-44
2022/09/14 20:44:27;;;;;;;;;;;23.60;47.20;;;;;;8330212;28;19925;-44
2022/09/14 20:48:28;;;;;;;;;;;23.60;47.20;;;;;;8330526;28;19921;-44
2022/09/14 20:52:29;;;;;;;;;;;23.60;47.20;;;;;;8329875;28;19917;-44
2022/09/14 20:56:30;;;;;;;;;;;23.60;47.20;;;;;;8329979;28;19924;-45
2022/09/14 21:00:30;;;;;;;;;;;23.60;47.30;;;;;;8330432;28;19917;-45
2022/09/14 21:04:32;;;;;;;;;;;23.60;47.30;;;;;;8330572;28;19952;-44
2022/09/14 21:08:34;;;;;;;;;;;23.60;47.30;;;;;;8329743;28;19918;-44
2022/09/14 21:12:34;;;;;;;;;;;23.60;47.30;;;;;;8330365;28;20262;-44
2022/09/14 21:16:36;;;;;;;;;;;23.60;47.30;;;;;;8338952;28;19917;-44
2022/09/14 21:20:37;;;;;;;;;;;23.60;47.30;;;;;;8357288;28;19917;-45
2022/09/14 21:24:37;;;;;;;;;;;23.60;47.30;;;;;;8330179;28;19928;-44
2022/09/14 21:28:38;;;;;;;;;;;23.60;47.30;;;;;;8329948;28;20366;-46
2022/09/14 21:32:39;;;;;;;;;;;23.60;47.30;;;;;;8329364;28;19921;-45
2022/09/14 21:36:41;;;;;;;;;;;23.60;47.30;;;;;;8329739;28;20324;-45
2022/09/14 21:40:42;;;;;;;;;;;23.60;47.30;;;;;;8329822;28;19967;-44
2022/09/14 21:44:43;;;;;;;;;;;23.50;47.30;;;;;;8329360;28;19940;-44
2022/09/14 21:48:44;;;;;;;;;;;23.50;47.20;;;;;;8329886;28;19924;-45
2022/09/14 21:52:44;;;;;;;;;;;23.50;47.30;;;;;;8329531;28;19924;-44
2022/09/14 21:56:45;;;;;;;;;;;23.50;47.30;;;;;;8329238;28;20000;-43
2022/09/14 22:00:46;;;;;;;;;;;23.50;47.30;;;;;;8333226;28;19917;-46
2022/09/14 22:04:46;;;;;;;;;;;23.50;47.30;;;;;;8365782;28;19938;-44
2022/09/14 22:08:48;;;;;;;;;;;23.50;47.30;;;;;;8318558;28;19922;-45
2022/09/14 22:12:48;;;;;;;;;;;23.50;47.30;;;;;;8323094;28;20362;-45
2022/09/14 22:16:49;;;;;;;;;;;23.50;47.30;;;;;;8335063;28;19917;-45
2022/09/14 22:20:56;;;;;;;;;;;23.50;47.30;;;;;;8334421;28;19917;-45
2022/09/14 22:24:57;;;;;;;;;;;23.50;47.30;;;;;;8335127;28;19925;-45
2022/09/14 22:28:57;;;;;;;;;;;23.50;47.30;;;;;;8334779;28;20389;-46
2022/09/14 22:32:58;;;;;;;;;;;23.50;47.30;;;;;;8334135;28;19917;-45
2022/09/14 22:36:59;;;;;;;;;;;23.50;47.30;;;;;;8334327;28;20457;-46
2022/09/14 22:41:03;;;;;;;;;;;23.50;47.30;;;;;;8334406;28;19940;-46
2022/09/14 22:45:04;;;;;;;;;;;23.50;47.30;;;;;;8333786;28;20027;-45
2022/09/14 22:49:04;;;;;;;;;;;23.40;47.30;;;;;;8334024;28;20313;-44
2022/09/14 22:53:05;;;;;;;;;;;23.50;47.30;;;;;;8333865;28;19917;-45
2022/09/14 22:57:06;;;;;;;;;;;23.40;47.20;;;;;;8333441;28;20396;-45
2022/09/14 23:01:08;;;;;;;;;;;23.50;47.30;;;;;;8333714;28;19928;-45
2022/09/14 23:05:08;;;;;;;;;;;23.50;47.30;;;;;;8333810;28;19928;-44
2022/09/14 23:09:10;;;;;;;;;;;23.50;47.30;;;;;;8333054;28;19917;-45
2022/09/14 23:13:10;;;;;;;;;;;23.40;47.30;;;;;;8333258;28;19917;-45
2022/09/14 23:17:11;;;;;;;;;;;23.40;47.30;;;;;;8332696;28;20000;-44
2022/09/14 23:21:12;;;;;;;;;;;23.40;47.30;;;;;;8332662;28;19917;-45
2022/09/14 23:25:12;;;;;;;;;;;23.50;47.30;;;;;;8333157;28;19928;-44
2022/09/14 23:29:14;;;;;;;;;;;23.40;47.30;;;;;;8332727;28;19962;-44